createdAt,value
2019-04-10T00:04:35.675Z,71.25
2019-04-10T00:09:59.304Z,72.97
2019-04-10T00:15:24.326Z,73.67
2019-04-10T00:20:49.120Z,75.00
2019-04-10T00:26:13.908Z,75.05
2019-04-10T00:31:38.162Z,76.49
2019-04-10T00:37:02.395Z,76.63
2019-04-10T00:42:27.568Z,77.55
2019-04-10T00:47:51.192Z,77.55
2019-04-10T00:53:16.908Z,77.82
2019-04-10T00:58:41.523Z,78.15
2019-04-10T01:04:06.854Z,78.64
2019-04-10T01:09:31.154Z,78.27
2019-04-10T01:14:54.479Z,78.40
2019-04-10T01:20:19.606Z,79.37
2019-04-10T01:25:43.183Z,80.09
2019-04-10T01:31:07.692Z,80.44
2019-04-10T01:36:31.844Z,80.95
2019-04-10T01:41:56.475Z,80.81
2019-04-10T01:47:21.344Z,81.41
2019-04-10T01:52:47.060Z,82.05
2019-04-10T01:58:17.574Z,82.13
2019-04-10T02:03:42.436Z,81.86
2019-04-10T02:09:10.960Z,82.10
2019-04-10T02:14:36.351Z,82.32
2019-04-10T02:20:00.928Z,82.10
2019-04-10T02:25:25.368Z,81.90
2019-04-10T02:30:50.185Z,81.65
2019-04-10T02:36:14.607Z,81.63
2019-04-10T02:41:38.793Z,82.18
2019-04-10T02:47:04.199Z,82.45
2019-04-10T02:52:28.603Z,83.04
2019-04-10T02:57:54.269Z,83.42
2019-04-10T03:03:20.089Z,83.51
2019-04-10T03:09:05.917Z,83.38
2019-04-10T03:14:10.620Z,82.71
2019-04-10T03:19:34.128Z,82.97
2019-04-10T03:24:58.495Z,82.70
2019-04-10T03:30:23.655Z,82.35
2019-04-10T03:35:51.472Z,81.74
2019-04-10T03:41:15.962Z,81.28
2019-04-10T03:46:40.311Z,81.26
2019-04-10T03:52:05.141Z,80.30
2019-04-10T03:57:29.596Z,79.93
2019-04-10T04:02:53.868Z,79.73
2019-04-10T04:08:17.916Z,79.83
2019-04-10T04:13:42.143Z,80.13
2019-04-10T04:19:06.003Z,80.16
2019-04-10T04:24:30.171Z,80.18
2019-04-10T04:29:54.139Z,80.12
2019-04-10T04:35:18.634Z,80.34
2019-04-10T04:40:44.250Z,80.11
2019-04-10T04:46:08.139Z,80.16
2019-04-10T04:51:33.055Z,80.14
2019-04-10T04:56:56.728Z,79.59
2019-04-10T05:02:20.243Z,78.91
2019-04-10T05:07:55.544Z,75.52
2019-04-10T05:13:10.355Z,74.46
2019-04-10T05:18:35.107Z,73.04
2019-04-10T05:23:59.653Z,71.87
2019-04-10T05:29:24.971Z,70.87
2019-04-10T05:34:50.381Z,70.00
2019-04-10T05:40:13.891Z,68.72
2019-04-10T05:45:38.383Z,67.60
2019-04-10T05:51:05.645Z,65.12
2019-04-10T05:56:28.583Z,64.47
2019-04-10T06:01:52.739Z,63.62
2019-04-10T06:07:17.027Z,64.32
2019-04-10T06:12:40.920Z,64.08
2019-04-10T06:18:05.039Z,63.50
2019-04-10T06:23:29.653Z,63.77
2019-04-10T06:28:54.740Z,62.91
2019-04-10T06:34:20.473Z,61.48
2019-04-10T06:39:44.995Z,59.86
2019-04-10T06:45:11.429Z,58.90
2019-04-10T06:50:37.044Z,58.93
2019-04-10T06:56:01.455Z,56.00
2019-04-10T07:01:33.619Z,54.86
2019-04-10T07:06:59.755Z,54.85
2019-04-10T07:12:16.458Z,52.75
2019-04-10T07:17:41.888Z,52.51
2019-04-10T07:23:06.988Z,49.88
2019-04-10T07:28:30.418Z,47.48
2019-04-10T07:33:54.915Z,47.81
2019-04-10T07:39:18.513Z,45.48
2019-04-10T07:44:43.027Z,45.15
2019-04-10T07:50:08.799Z,46.35
2019-04-10T07:55:33.164Z,46.59
2019-04-10T08:00:57.324Z,46.18
2019-04-10T08:06:22.054Z,46.30
2019-04-10T08:11:47.129Z,45.88
2019-04-10T08:17:10.530Z,46.15
2019-04-10T08:22:35.032Z,44.65
2019-04-10T08:27:58.604Z,44.48
2019-04-10T08:33:21.986Z,42.54
2019-04-10T08:38:46.699Z,43.12
2019-04-10T08:44:10.758Z,43.19
2019-04-10T08:49:34.769Z,42.31
2019-04-10T08:54:59.611Z,43.02
2019-04-10T09:00:24.799Z,40.51
2019-04-10T09:05:49.072Z,39.04
2019-04-10T09:11:12.843Z,37.18
2019-04-10T09:16:38.434Z,33.43
2019-04-10T09:22:03.854Z,32.80
2019-04-10T09:27:28.964Z,30.69
2019-04-10T09:32:52.844Z,30.36
2019-04-10T09:38:16.795Z,28.61
2019-04-10T09:43:40.126Z,29.60
2019-04-10T09:49:05.428Z,31.10
2019-04-10T09:54:28.770Z,30.32
2019-04-10T09:59:52.898Z,31.69
2019-04-10T10:05:18.181Z,29.58
2019-04-10T10:10:42.666Z,28.55
2019-04-10T10:16:06.522Z,29.74
2019-04-10T10:21:30.580Z,33.25
2019-04-10T10:26:55.631Z,31.31
2019-04-10T10:32:19.227Z,31.53
2019-04-10T10:37:42.899Z,29.34
2019-04-10T10:43:06.461Z,31.56
2019-04-10T10:48:31.563Z,32.31
2019-04-10T10:53:56.660Z,32.09
2019-04-10T10:59:21.828Z,29.29
2019-04-10T11:04:45.402Z,27.23
2019-04-10T11:10:09.812Z,25.38
2019-04-10T11:15:34.185Z,26.58
2019-04-10T11:21:04.097Z,28.46
2019-04-10T11:26:25.575Z,28.51
2019-04-10T11:31:50.121Z,29.89
2019-04-10T11:37:24.189Z,30.16
2019-04-10T11:42:39.921Z,30.94
2019-04-10T11:48:05.865Z,28.35
2019-04-10T11:53:32.693Z,28.12
2019-04-10T11:58:57.599Z,28.71
2019-04-10T12:04:23.247Z,26.29
2019-04-10T12:15:12.327Z,25.02
2019-04-10T12:20:37.497Z,27.58
2019-04-10T12:26:01.697Z,26.32
2019-04-10T12:31:26.079Z,26.14
2019-04-10T12:36:51.795Z,27.84
2019-04-10T12:42:16.492Z,30.07
2019-04-10T12:47:41.978Z,29.67
2019-04-10T12:53:07.422Z,32.82
2019-04-10T12:58:30.971Z,30.76
2019-04-10T13:03:55.733Z,26.82
2019-04-10T13:09:20.117Z,24.82
2019-04-10T13:14:44.280Z,26.18
2019-04-10T13:20:10.582Z,25.41
2019-04-10T13:25:34.510Z,27.08
2019-04-10T13:30:59.595Z,30.74
2019-04-10T13:36:23.859Z,29.95
2019-04-10T13:41:48.417Z,27.34
2019-04-10T13:47:13.390Z,26.15
2019-04-10T13:52:40.465Z,28.93
2019-04-10T13:58:04.160Z,29.62
2019-04-10T14:03:30.149Z,31.60
2019-04-10T14:09:08.182Z,29.87
2019-04-10T14:14:20.366Z,27.35
2019-04-10T14:19:45.699Z,31.99
2019-04-10T14:25:19.778Z,34.53
2019-04-10T14:30:43.683Z,32.11
2019-04-10T14:36:08.138Z,30.58
2019-04-10T14:41:32.306Z,30.56
2019-04-10T14:46:56.335Z,33.53
2019-04-10T14:52:21.802Z,35.36
2019-04-10T14:57:47.317Z,35.63
2019-04-10T15:03:11.922Z,34.04
2019-04-10T15:08:36.260Z,33.82
2019-04-10T15:14:01.299Z,32.10
2019-04-10T15:19:26.882Z,30.42
2019-04-10T15:24:51.876Z,30.29
2019-04-10T15:30:16.643Z,31.49
2019-04-10T15:35:41.555Z,30.59
2019-04-10T15:41:06.440Z,30.55
2019-04-10T15:46:30.406Z,30.63
2019-04-10T15:51:55.224Z,31.29
2019-04-10T15:57:22.837Z,31.88
2019-04-10T16:02:46.904Z,35.18
2019-04-10T16:08:12.149Z,34.19
2019-04-10T16:13:41.375Z,34.43
2019-04-10T16:19:15.106Z,33.99
2019-04-10T16:24:38.858Z,35.26
2019-04-10T16:30:03.756Z,35.42
2019-04-10T16:35:27.467Z,35.12
2019-04-10T16:40:52.079Z,35.74
2019-04-10T16:46:17.314Z,35.22
2019-04-10T16:51:41.115Z,35.10
2019-04-10T16:57:05.343Z,34.50
2019-04-10T17:02:29.877Z,33.75
2019-04-10T17:07:53.333Z,35.17
2019-04-10T17:13:18.300Z,36.61
2019-04-10T17:18:43.427Z,36.77
2019-04-10T17:24:09.189Z,36.75
2019-04-10T17:29:33.444Z,36.62
2019-04-10T17:34:57.214Z,37.85
2019-04-10T17:40:30.659Z,38.43
2019-04-10T17:45:46.915Z,39.87
2019-04-10T17:51:12.121Z,40.71
2019-04-10T17:56:36.151Z,41.68
2019-04-10T18:02:02.212Z,41.89
2019-04-10T18:07:26.042Z,42.30
2019-04-10T18:12:50.395Z,41.50
2019-04-10T18:18:15.761Z,41.30
2019-04-10T18:23:40.386Z,41.66
2019-04-10T18:29:05.966Z,42.12
2019-04-10T18:34:29.628Z,42.31
2019-04-10T18:39:53.266Z,42.57
2019-04-10T18:45:17.607Z,42.75
2019-04-10T18:50:41.890Z,43.17
2019-04-10T18:56:05.629Z,43.29
2019-04-10T19:01:43.239Z,43.45
2019-04-10T19:07:07.057Z,43.73
2019-04-10T19:12:32.747Z,44.21
2019-04-10T19:17:57.554Z,44.51
2019-04-10T19:23:22.723Z,45.08
2019-04-10T19:28:46.682Z,45.40
2019-04-10T19:34:10.497Z,45.74
2019-04-10T19:39:34.650Z,45.66
2019-04-10T19:44:59.443Z,46.19
2019-04-10T19:50:25.469Z,46.19
2019-04-10T19:55:50.143Z,46.72
2019-04-10T20:01:14.564Z,47.62
2019-04-10T20:06:39.093Z,47.48
2019-04-10T20:12:04.338Z,47.82
2019-04-10T20:17:28.656Z,48.68
2019-04-10T20:22:52.144Z,49.10
2019-04-10T20:28:16.829Z,49.89
2019-04-10T20:33:41.058Z,50.02
2019-04-10T20:39:07.815Z,50.27
2019-04-10T20:44:32.616Z,50.75
2019-04-10T20:49:56.616Z,50.77
2019-04-10T20:55:20.289Z,51.70
2019-04-10T21:00:44.984Z,51.47
2019-04-10T21:06:09.498Z,52.16
2019-04-10T21:11:33.369Z,52.15
2019-04-10T21:16:58.214Z,51.90
2019-04-10T21:22:22.407Z,51.40
2019-04-10T21:27:49.223Z,51.81
2019-04-10T21:33:30.233Z,53.14
2019-04-10T21:38:54.839Z,53.26
2019-04-10T21:44:19.016Z,53.27
2019-04-10T21:49:42.601Z,52.31
2019-04-10T21:55:07.169Z,51.85
2019-04-10T22:00:51.235Z,51.55
2019-04-10T22:06:31.626Z,51.76
2019-04-10T22:11:57.294Z,51.45
2019-04-10T22:17:22.626Z,51.13
2019-04-10T22:22:47.113Z,51.04
2019-04-10T22:28:11.271Z,51.00
2019-04-10T22:33:34.780Z,51.37
2019-04-10T22:38:58.951Z,51.80
2019-04-10T22:44:33.718Z,51.52
2019-04-10T22:49:48.582Z,51.79
2019-04-10T22:55:12.302Z,52.19
2019-04-10T23:00:37.633Z,52.37
2019-04-10T23:06:02.024Z,53.00
2019-04-10T23:11:33.435Z,53.54
2019-04-10T23:16:52.564Z,54.11
2019-04-10T23:22:16.941Z,54.64
2019-04-10T23:27:41.947Z,55.38
2019-04-10T23:33:06.104Z,55.97
2019-04-10T23:38:29.883Z,56.43
2019-04-10T23:43:54.191Z,57.13
2019-04-10T23:49:17.688Z,58.01
2019-04-10T23:54:42.164Z,58.74
